sensor_id;sensor_type;location;lat;lon;timestamp;pressure;altitude;pressure_sealevel;temperature;humidity
39769;BME280;38939;47.824;14.642;2023-04-15T00:00:32;95525.22;;;4.58;94.07
39769;BME280;38939;47.824;14.642;2023-04-15T00:01:34;95524.63;;;4.56;93.93
39769;BME280;38939;47.824;14.642;2023-04-15T00:02:37;95525.03;;;4.53;93.63
39769;BME280;38939;47.824;14.642;2023-04-15T00:03:39;95521.44;;;4.54;94.42
39769;BME280;38939;47.824;14.642;2023-04-15T00:04:42;95517.28;;;4.60;93.86
39769;BME280;38939;47.824;14.642;2023-04-15T00:05:43;95522.44;;;4.60;94.18
39769;BME280;38939;47.824;14.642;2023-04-15T00:06:49;95524.25;;;4.53;94.02
39769;BME280;38939;47.824;14.642;2023-04-15T00:07:51;95511.13;;;4.48;94.42
39769;BME280;38939;47.824;14.642;2023-04-15T00:08:54;95517.47;;;4.52;94.40
39769;BME280;38939;47.824;14.642;2023-04-15T00:09:56;95512.72;;;4.55;94.90
39769;BME280;38939;47.824;14.642;2023-04-15T00:10:59;95517.47;;;4.58;94.81
39769;BME280;38939;47.824;14.642;2023-04-15T00:12:06;95517.09;;;4.55;94.90
39769;BME280;38939;47.824;14.642;2023-04-15T00:13:09;95513.69;;;4.54;94.33
39769;BME280;38939;47.824;14.642;2023-04-15T00:14:11;95511.72;;;4.56;94.99
39769;BME280;38939;47.824;14.642;2023-04-15T00:15:14;95519.28;;;4.51;94.32
39769;BME280;38939;47.824;14.642;2023-04-15T00:16:15;95509.72;;;4.45;94.45
39769;BME280;38939;47.824;14.642;2023-04-15T00:17:17;95521.44;;;4.41;94.67
39769;BME280;38939;47.824;14.642;2023-04-15T00:18:19;95516.66;;;4.38;95.03
39769;BME280;38939;47.824;14.642;2023-04-15T00:19:21;95510.72;;;4.31;94.81
39769;BME280;38939;47.824;14.642;2023-04-15T00:20:24;95502.19;;;4.30;95.01
39769;BME280;38939;47.824;14.642;2023-04-15T00:21:26;95502.38;;;4.35;95.49
39769;BME280;38939;47.824;14.642;2023-04-15T00:22:30;95508.53;;;4.34;95.36
39769;BME280;38939;47.824;14.642;2023-04-15T00:23:33;95510.72;;;4.37;95.38
39769;BME280;38939;47.824;14.642;2023-04-15T00:24:37;95503.38;;;4.41;95.57
39769;BME280;38939;47.824;14.642;2023-04-15T00:25:39;95509.13;;;4.43;95.20
39769;BME280;38939;47.824;14.642;2023-04-15T00:26:40;95499.00;;;4.41;94.94
39769;BME280;38939;47.824;14.642;2023-04-15T00:27:42;95497.19;;;4.42;95.27
39769;BME280;38939;47.824;14.642;2023-04-15T00:28:44;95502.00;;;4.45;94.75
39769;BME280;38939;47.824;14.642;2023-04-15T00:29:46;95512.50;;;4.37;94.59
39769;BME280;38939;47.824;14.642;2023-04-15T00:30:48;95508.91;;;4.31;94.60
39769;BME280;38939;47.824;14.642;2023-04-15T00:31:50;95510.31;;;4.27;94.68
39769;BME280;38939;47.824;14.642;2023-04-15T00:32:52;95501.97;;;4.25;94.75
39769;BME280;38939;47.824;14.642;2023-04-15T00:33:54;95504.72;;;4.17;94.66
39769;BME280;38939;47.824;14.642;2023-04-15T00:34:56;95502.75;;;4.12;95.44
39769;BME280;38939;47.824;14.642;2023-04-15T00:35:59;95503.72;;;4.11;95.88
39769;BME280;38939;47.824;14.642;2023-04-15T00:37:01;95508.28;;;4.09;95.45
39769;BME280;38939;47.824;14.642;2023-04-15T00:38:03;95501.56;;;4.08;96.00
39769;BME280;38939;47.824;14.642;2023-04-15T00:39:05;95504.91;;;4.15;95.93
39769;BME280;38939;47.824;14.642;2023-04-15T00:40:08;95500.56;;;4.23;96.02
39769;BME280;38939;47.824;14.642;2023-04-15T00:41:12;95506.34;;;4.31;95.62
39769;BME280;38939;47.824;14.642;2023-04-15T00:42:14;95500.38;;;4.31;95.65
39769;BME280;38939;47.824;14.642;2023-04-15T00:43:17;95502.38;;;4.29;95.41
39769;BME280;38939;47.824;14.642;2023-04-15T00:44:19;95499.78;;;4.29;95.26
39769;BME280;38939;47.824;14.642;2023-04-15T00:45:21;95497.63;;;4.32;95.34
39769;BME280;38939;47.824;14.642;2023-04-15T00:46:23;95496.41;;;4.35;95.02
39769;BME280;38939;47.824;14.642;2023-04-15T00:47:27;95487.28;;;4.39;94.94
39769;BME280;38939;47.824;14.642;2023-04-15T00:48:30;95488.06;;;4.39;94.92
39769;BME280;38939;47.824;14.642;2023-04-15T00:49:32;95486.28;;;4.40;95.01
39769;BME280;38939;47.824;14.642;2023-04-15T00:50:34;95485.69;;;4.38;94.90
39769;BME280;38939;47.824;14.642;2023-04-15T00:51:36;95488.47;;;4.30;94.69
39769;BME280;38939;47.824;14.642;2023-04-15T00:52:38;95488.88;;;4.27;94.97
39769;BME280;38939;47.824;14.642;2023-04-15T00:53:40;95482.88;;;4.26;94.98
39769;BME280;38939;47.824;14.642;2023-04-15T00:54:42;95488.66;;;4.21;95.06
39769;BME280;38939;47.824;14.642;2023-04-15T00:55:44;95488.84;;;4.20;95.04
39769;BME280;38939;47.824;14.642;2023-04-15T00:56:46;95493.63;;;4.16;94.99
39769;BME280;38939;47.824;14.642;2023-04-15T00:57:47;95487.44;;;4.17;95.14
39769;BME280;38939;47.824;14.642;2023-04-15T00:58:50;95479.53;;;4.19;95.38
39769;BME280;38939;47.824;14.642;2023-04-15T00:59:52;95478.13;;;4.16;95.18
39769;BME280;38939;47.824;14.642;2023-04-15T01:00:54;95481.50;;;4.17;95.34
39769;BME280;38939;47.824;14.642;2023-04-15T01:01:56;95477.13;;;4.17;95.30
39769;BME280;38939;47.824;14.642;2023-04-15T01:02:58;95482.09;;;4.19;95.22
39769;BME280;38939;47.824;14.642;2023-04-15T01:04:00;95485.28;;;4.14;95.42
39769;BME280;38939;47.824;14.642;2023-04-15T01:05:03;95481.88;;;4.07;95.35
39769;BME280;38939;47.824;14.642;2023-04-15T01:06:05;95482.47;;;4.09;95.64
39769;BME280;38939;47.824;14.642;2023-04-15T01:07:08;95484.88;;;4.11;95.68
39769;BME280;38939;47.824;14.642;2023-04-15T01:08:10;95482.47;;;4.16;95.72
39769;BME280;38939;47.824;14.642;2023-04-15T01:09:11;95482.50;;;4.23;95.82
39769;BME280;38939;47.824;14.642;2023-04-15T01:10:13;95487.06;;;4.20;95.10
39769;BME280;38939;47.824;14.642;2023-04-15T01:11:15;95484.88;;;4.11;95.32
39769;BME280;38939;47.824;14.642;2023-04-15T01:12:17;95486.06;;;4.08;95.42
39769;BME280;38939;47.824;14.642;2023-04-15T01:13:21;95475.16;;;4.06;95.63
39769;BME280;38939;47.824;14.642;2023-04-15T01:14:24;95471.97;;;4.04;95.61
39769;BME280;38939;47.824;14.642;2023-04-15T01:15:26;95486.03;;;4.01;95.77
39769;BME280;38939;47.824;14.642;2023-04-15T01:16:28;95488.44;;;4.03;95.69
39769;BME280;38939;47.824;14.642;2023-04-15T01:17:30;95476.53;;;4.09;95.63
39769;BME280;38939;47.824;14.642;2023-04-15T01:18:32;95481.28;;;4.05;95.51
39769;BME280;38939;47.824;14.642;2023-04-15T01:19:35;95492.00;;;4.02;95.56
39769;BME280;38939;47.824;14.642;2023-04-15T01:20:37;95487.63;;;4.09;95.73
39769;BME280;38939;47.824;14.642;2023-04-15T01:21:39;95480.91;;;4.15;95.71
39769;BME280;38939;47.824;14.642;2023-04-15T01:22:41;95481.31;;;4.18;95.67
39769;BME280;38939;47.824;14.642;2023-04-15T01:23:44;95487.66;;;4.23;95.64
39769;BME280;38939;47.824;14.642;2023-04-15T01:24:54;95482.09;;;4.26;95.52
39769;BME280;38939;47.824;14.642;2023-04-15T01:26:02;95478.72;;;4.32;95.57
39769;BME280;38939;47.824;14.642;2023-04-15T01:27:04;95485.09;;;4.29;95.06
39769;BME280;38939;47.824;14.642;2023-04-15T01:28:06;95485.88;;;4.16;94.57
39769;BME280;38939;47.824;14.642;2023-04-15T01:29:10;95476.94;;;4.12;94.86
39769;BME280;38939;47.824;14.642;2023-04-15T01:30:12;95487.63;;;4.16;94.84
39769;BME280;38939;47.824;14.642;2023-04-15T01:31:14;95479.72;;;4.17;94.54
39769;BME280;38939;47.824;14.642;2023-04-15T01:32:16;95477.34;;;4.23;94.95
39769;BME280;38939;47.824;14.642;2023-04-15T01:33:18;95474.16;;;4.20;94.62
39769;BME280;38939;47.824;14.642;2023-04-15T01:34:20;95479.72;;;4.17;94.79
39769;BME280;38939;47.824;14.642;2023-04-15T01:35:23;95483.50;;;4.15;94.54
39769;BME280;38939;47.824;14.642;2023-04-15T01:36:25;95487.25;;;4.12;94.71
39769;BME280;38939;47.824;14.642;2023-04-15T01:37:26;95486.47;;;4.18;94.97
39769;BME280;38939;47.824;14.642;2023-04-15T01:38:29;95485.69;;;4.25;94.82
39769;BME280;38939;47.824;14.642;2023-04-15T01:39:31;95481.53;;;4.30;94.78
39769;BME280;38939;47.824;14.642;2023-04-15T01:40:34;95478.72;;;4.32;94.71
39769;BME280;38939;47.824;14.642;2023-04-15T01:41:36;95484.72;;;4.32;94.65
39769;BME280;38939;47.824;14.642;2023-04-15T01:42:38;95487.28;;;4.32;94.71
39769;BME280;38939;47.824;14.642;2023-04-15T01:43:39;95493.25;;;4.33;94.35
39769;BME280;38939;47.824;14.642;2023-04-15T01:44:41;95481.31;;;4.32;94.08
39769;BME280;38939;47.824;14.642;2023-04-15T01:45:44;95485.31;;;4.34;93.98
39769;BME280;38939;47.824;14.642;2023-04-15T01:46:47;95471.56;;;4.34;94.65
39769;BME280;38939;47.824;14.642;2023-04-15T01:47:50;95474.97;;;4.34;94.54
39769;BME280;38939;47.824;14.642;2023-04-15T01:48:51;95471.78;;;4.12;94.33
39769;BME280;38939;47.824;14.642;2023-04-15T01:49:53;95476.31;;;3.97;94.60
39769;BME280;38939;47.824;14.642;2023-04-15T01:50:55;95478.88;;;3.90;94.89
39769;BME280;38939;47.824;14.642;2023-04-15T01:51:58;95476.09;;;3.92;95.01
39769;BME280;38939;47.824;14.642;2023-04-15T01:53:01;95476.50;;;3.95;95.58
39769;BME280;38939;47.824;14.642;2023-04-15T01:54:02;95477.69;;;3.99;95.46
39769;BME280;38939;47.824;14.642;2023-04-15T01:55:04;95478.09;;;4.03;95.39
39769;BME280;38939;47.824;14.642;2023-04-15T01:56:06;95471.56;;;4.07;95.51
39769;BME280;38939;47.824;14.642;2023-04-15T01:57:08;95473.34;;;4.13;95.46
39769;BME280;38939;47.824;14.642;2023-04-15T01:58:11;95483.69;;;4.20;95.64
39769;BME280;38939;47.824;14.642;2023-04-15T01:59:13;95469.19;;;4.26;95.25
39769;BME280;38939;47.824;14.642;2023-04-15T02:00:15;95472.78;;;4.31;95.30
39769;BME280;38939;47.824;14.642;2023-04-15T02:01:18;95472.59;;;4.33;95.25
39769;BME280;38939;47.824;14.642;2023-04-15T02:02:20;95477.75;;;4.33;95.08
39769;BME280;38939;47.824;14.642;2023-04-15T02:03:23;95472.38;;;4.28;94.61
39769;BME280;38939;47.824;14.642;2023-04-15T02:04:25;95466.59;;;4.26;95.09
39769;BME280;38939;47.824;14.642;2023-04-15T02:05:28;95471.78;;;4.19;94.81
39769;BME280;38939;47.824;14.642;2023-04-15T02:06:30;95473.75;;;4.10;94.87
39769;BME280;38939;47.824;14.642;2023-04-15T02:07:32;95472.75;;;4.11;95.16
39769;BME280;38939;47.824;14.642;2023-04-15T02:08:34;95469.38;;;4.17;95.03
39769;BME280;38939;47.824;14.642;2023-04-15T02:09:35;95467.22;;;4.21;94.82
39769;BME280;38939;47.824;14.642;2023-04-15T02:10:37;95470.38;;;4.16;94.70
39769;BME280;38939;47.824;14.642;2023-04-15T02:11:39;95471.38;;;4.09;94.97
39769;BME280;38939;47.824;14.642;2023-04-15T02:12:41;95466.81;;;4.11;94.84
39769;BME280;38939;47.824;14.642;2023-04-15T02:13:43;95464.63;;;4.14;94.97
39769;BME280;38939;47.824;14.642;2023-04-15T02:14:45;95466.63;;;4.12;95.17
39769;BME280;38939;47.824;14.642;2023-04-15T02:15:47;95459.06;;;4.11;95.28
39769;BME280;38939;47.824;14.642;2023-04-15T02:16:50;95456.25;;;4.06;95.28
39769;BME280;38939;47.824;14.642;2023-04-15T02:17:52;95462.25;;;4.06;95.49
39769;BME280;38939;47.824;14.642;2023-04-15T02:18:56;95465.41;;;4.08;95.38
39769;BME280;38939;47.824;14.642;2023-04-15T02:19:58;95464.03;;;4.12;95.57
39769;BME280;38939;47.824;14.642;2023-04-15T02:21:00;95462.63;;;4.10;95.46
39769;BME280;38939;47.824;14.642;2023-04-15T02:22:02;95464.59;;;4.08;95.29
39769;BME280;38939;47.824;14.642;2023-04-15T02:23:04;95478.91;;;4.10;95.38
39769;BME280;38939;47.824;14.642;2023-04-15T02:24:07;95469.78;;;4.14;94.98
39769;BME280;38939;47.824;14.642;2023-04-15T02:25:09;95465.81;;;4.18;95.50
39769;BME280;38939;47.824;14.642;2023-04-15T02:26:12;95463.63;;;4.15;94.99
39769;BME280;38939;47.824;14.642;2023-04-15T02:27:14;95458.47;;;4.15;95.13
39769;BME280;38939;47.824;14.642;2023-04-15T02:28:17;95466.63;;;4.19;94.89
39769;BME280;38939;47.824;14.642;2023-04-15T02:29:19;95468.41;;;4.25;95.05
39769;BME280;38939;47.824;14.642;2023-04-15T02:30:20;95456.88;;;4.28;94.73
39769;BME280;38939;47.824;14.642;2023-04-15T02:31:24;95462.63;;;4.30;94.87
39769;BME280;38939;47.824;14.642;2023-04-15T02:32:26;95463.66;;;4.29;94.92
39769;BME280;38939;47.824;14.642;2023-04-15T02:33:29;95459.88;;;4.31;95.15
39769;BME280;38939;47.824;14.642;2023-04-15T02:34:32;95465.25;;;4.36;94.89
39769;BME280;38939;47.824;14.642;2023-04-15T02:35:34;95467.81;;;4.36;94.49
39769;BME280;38939;47.824;14.642;2023-04-15T02:36:39;95463.25;;;4.38;94.65
39769;BME280;38939;47.824;14.642;2023-04-15T02:37:41;95465.63;;;4.40;94.50
39769;BME280;38939;47.824;14.642;2023-04-15T02:38:46;95471.19;;;4.44;94.68
39769;BME280;38939;47.824;14.642;2023-04-15T02:39:47;95477.94;;;4.38;94.36
39769;BME280;38939;47.824;14.642;2023-04-15T02:40:50;95474.38;;;4.39;94.33
39769;BME280;38939;47.824;14.642;2023-04-15T02:41:52;95470.59;;;4.41;94.18
39769;BME280;38939;47.824;14.642;2023-04-15T02:42:55;95476.34;;;4.44;93.92
39769;BME280;38939;47.824;14.642;2023-04-15T02:43:57;95471.78;;;4.46;94.33
39769;BME280;38939;47.824;14.642;2023-04-15T02:44:59;95469.78;;;4.48;93.84
39769;BME280;38939;47.824;14.642;2023-04-15T02:46:01;95469.00;;;4.47;93.74
39769;BME280;38939;47.824;14.642;2023-04-15T02:47:03;95478.13;;;4.50;93.83
39769;BME280;38939;47.824;14.642;2023-04-15T02:48:07;95468.59;;;4.50;93.56
39769;BME280;38939;47.824;14.642;2023-04-15T02:49:08;95470.38;;;4.50;93.32
39769;BME280;38939;47.824;14.642;2023-04-15T02:50:11;95475.38;;;4.51;94.02
39769;BME280;38939;47.824;14.642;2023-04-15T02:51:14;95471.38;;;4.55;93.60
39769;BME280;38939;47.824;14.642;2023-04-15T02:52:17;95469.41;;;4.57;93.22
39769;BME280;38939;47.824;14.642;2023-04-15T02:53:19;95482.91;;;4.59;93.31
39769;BME280;38939;47.824;14.642;2023-04-15T02:54:21;95471.19;;;4.57;93.33
39769;BME280;38939;47.824;14.642;2023-04-15T02:55:26;95476.56;;;4.55;93.07
39769;BME280;38939;47.824;14.642;2023-04-15T02:56:28;95479.34;;;4.54;93.37
39769;BME280;38939;47.824;14.642;2023-04-15T02:57:31;95476.75;;;4.54;93.40
39769;BME280;38939;47.824;14.642;2023-04-15T02:58:34;95467.19;;;4.54;93.27
39769;BME280;38939;47.824;14.642;2023-04-15T02:59:36;95468.63;;;4.57;93.07
39769;BME280;38939;47.824;14.642;2023-04-15T03:00:39;95467.59;;;4.58;92.77
39769;BME280;38939;47.824;14.642;2023-04-15T03:01:41;95465.81;;;4.58;92.95
39769;BME280;38939;47.824;14.642;2023-04-15T03:02:45;95466.63;;;4.59;92.85
39769;BME280;38939;47.824;14.642;2023-04-15T03:03:48;95464.22;;;4.57;93.21
39769;BME280;38939;47.824;14.642;2023-04-15T03:04:50;95459.69;;;4.53;92.77
39769;BME280;38939;47.824;14.642;2023-04-15T03:05:53;95460.47;;;4.53;93.12
39769;BME280;38939;47.824;14.642;2023-04-15T03:06:54;95456.28;;;4.52;93.24
39769;BME280;38939;47.824;14.642;2023-04-15T03:07:57;95457.28;;;4.51;93.45
39769;BME280;38939;47.824;14.642;2023-04-15T03:08:59;95459.88;;;4.51;93.46
39769;BME280;38939;47.824;14.642;2023-04-15T03:10:01;95459.88;;;4.51;93.62
39769;BME280;38939;47.824;14.642;2023-04-15T03:11:03;95462.03;;;4.54;93.46
39769;BME280;38939;47.824;14.642;2023-04-15T03:12:05;95464.22;;;4.57;93.36
39769;BME280;38939;47.824;14.642;2023-04-15T03:13:07;95467.41;;;4.59;93.76
39769;BME280;38939;47.824;14.642;2023-04-15T03:14:09;95463.63;;;4.62;93.24
39769;BME280;38939;47.824;14.642;2023-04-15T03:15:11;95464.44;;;4.63;93.42
39769;BME280;38939;47.824;14.642;2023-04-15T03:16:13;95462.66;;;4.63;92.91
39769;BME280;38939;47.824;14.642;2023-04-15T03:17:15;95463.44;;;4.64;93.23
39769;BME280;38939;47.824;14.642;2023-04-15T03:18:17;95455.69;;;4.64;93.06
39769;BME280;38939;47.824;14.642;2023-04-15T03:19:19;95453.53;;;4.60;93.05
39769;BME280;38939;47.824;14.642;2023-04-15T03:20:21;95461.66;;;4.57;93.43
39769;BME280;38939;47.824;14.642;2023-04-15T03:21:25;95470.59;;;4.48;93.24
39769;BME280;38939;47.824;14.642;2023-04-15T03:22:27;95467.59;;;4.38;93.15
39769;BME280;38939;47.824;14.642;2023-04-15T03:23:29;95469.81;;;4.41;93.38
39769;BME280;38939;47.824;14.642;2023-04-15T03:24:31;95462.84;;;4.41;93.16
39769;BME280;38939;47.824;14.642;2023-04-15T03:25:33;95469.22;;;4.32;93.64
39769;BME280;38939;47.824;14.642;2023-04-15T03:26:38;95465.44;;;4.28;93.49
39769;BME280;38939;47.824;14.642;2023-04-15T03:27:40;95470.19;;;4.31;93.82
39769;BME280;38939;47.824;14.642;2023-04-15T03:28:42;95465.03;;;4.38;93.76
39769;BME280;38939;47.824;14.642;2023-04-15T03:29:44;95477.13;;;4.44;93.69
39769;BME280;38939;47.824;14.642;2023-04-15T03:30:46;95474.97;;;4.48;93.78
39769;BME280;38939;47.824;14.642;2023-04-15T03:31:48;95480.53;;;4.51;93.54
39769;BME280;38939;47.824;14.642;2023-04-15T03:32:50;95476.16;;;4.52;93.29
39769;BME280;38939;47.824;14.642;2023-04-15T03:33:52;95473.56;;;4.52;93.73
39769;BME280;38939;47.824;14.642;2023-04-15T03:34:54;95471.41;;;4.49;93.96
39769;BME280;38939;47.824;14.642;2023-04-15T03:35:56;95472.38;;;4.48;93.73
39769;BME280;38939;47.824;14.642;2023-04-15T03:36:58;95474.78;;;4.49;93.83
39769;BME280;38939;47.824;14.642;2023-04-15T03:38:00;95471.78;;;4.52;94.02
39769;BME280;38939;47.824;14.642;2023-04-15T03:39:02;95476.56;;;4.55;93.74
39769;BME280;38939;47.824;14.642;2023-04-15T03:40:04;95466.81;;;4.57;93.74
39769;BME280;38939;47.824;14.642;2023-04-15T03:41:06;95466.44;;;4.60;93.72
39769;BME280;38939;47.824;14.642;2023-04-15T03:42:08;95470.59;;;4.61;93.77
39769;BME280;38939;47.824;14.642;2023-04-15T03:43:10;95473.78;;;4.64;93.33
39769;BME280;38939;47.824;14.642;2023-04-15T03:44:12;95468.59;;;4.64;92.90
39769;BME280;38939;47.824;14.642;2023-04-15T03:45:14;95468.19;;;4.60;93.20
39769;BME280;38939;47.824;14.642;2023-04-15T03:46:17;95464.84;;;4.59;93.32
39769;BME280;38939;47.824;14.642;2023-04-15T03:47:18;95469.81;;;4.61;92.76
39769;BME280;38939;47.824;14.642;2023-04-15T03:48:21;95468.19;;;4.60;92.91
39769;BME280;38939;47.824;14.642;2023-04-15T03:49:23;95473.56;;;4.58;92.56
39769;BME280;38939;47.824;14.642;2023-04-15T03:50:25;95486.88;;;4.55;92.88
39769;BME280;38939;47.824;14.642;2023-04-15T03:51:26;95484.13;;;4.57;92.96
39769;BME280;38939;47.824;14.642;2023-04-15T03:52:28;95479.72;;;4.57;92.74
39769;BME280;38939;47.824;14.642;2023-04-15T03:53:30;95487.28;;;4.59;92.68
39769;BME280;38939;47.824;14.642;2023-04-15T03:54:32;95490.47;;;4.61;92.63
39769;BME280;38939;47.824;14.642;2023-04-15T03:55:34;95489.47;;;4.62;92.91
39769;BME280;38939;47.824;14.642;2023-04-15T03:56:36;95488.69;;;4.61;92.53
39769;BME280;38939;47.824;14.642;2023-04-15T03:57:38;95488.06;;;4.59;93.06
39769;BME280;38939;47.824;14.642;2023-04-15T03:58:40;95486.47;;;4.58;92.84
39769;BME280;38939;47.824;14.642;2023-04-15T03:59:41;95488.06;;;4.59;93.22
39769;BME280;38939;47.824;14.642;2023-04-15T04:00:44;95485.31;;;4.61;93.01
39769;BME280;38939;47.824;14.642;2023-04-15T04:01:46;95494.44;;;4.64;93.18
39769;BME280;38939;47.824;14.642;2023-04-15T04:02:49;95488.47;;;4.63;93.10
39769;BME280;38939;47.824;14.642;2023-04-15T04:03:51;95492.47;;;4.59;93.27
39769;BME280;38939;47.824;14.642;2023-04-15T04:04:53;95491.88;;;4.57;93.07
39769;BME280;38939;47.824;14.642;2023-04-15T04:05:55;95495.22;;;4.57;93.38
39769;BME280;38939;47.824;14.642;2023-04-15T04:06:57;95492.44;;;4.52;92.97
39769;BME280;38939;47.824;14.642;2023-04-15T04:07:59;95490.88;;;4.45;93.10
39769;BME280;38939;47.824;14.642;2023-04-15T04:09:01;95489.47;;;4.42;93.48
39769;BME280;38939;47.824;14.642;2023-04-15T04:10:03;95489.06;;;4.45;93.66
39769;BME280;38939;47.824;14.642;2023-04-15T04:11:05;95485.91;;;4.43;93.59
39769;BME280;38939;47.824;14.642;2023-04-15T04:12:07;95491.47;;;4.47;93.65
39769;BME280;38939;47.824;14.642;2023-04-15T04:13:09;95492.44;;;4.46;93.69
39769;BME280;38939;47.824;14.642;2023-04-15T04:14:11;95493.66;;;4.43;93.77
39769;BME280;38939;47.824;14.642;2023-04-15T04:15:13;95493.22;;;4.39;93.96
39769;BME280;38939;47.824;14.642;2023-04-15T04:16:14;95493.03;;;4.41;94.03
39769;BME280;38939;47.824;14.642;2023-04-15T04:17:17;95490.06;;;4.44;94.01
39769;BME280;38939;47.824;14.642;2023-04-15T04:18:19;95500.41;;;4.51;94.17
39769;BME280;38939;47.824;14.642;2023-04-15T04:19:21;95489.25;;;4.50;93.98
39769;BME280;38939;47.824;14.642;2023-04-15T04:20:22;95498.59;;;4.51;94.29
39769;BME280;38939;47.824;14.642;2023-04-15T04:21:24;95496.81;;;4.52;93.74
39769;BME280;38939;47.824;14.642;2023-04-15T04:22:27;95498.59;;;4.51;93.73
39769;BME280;38939;47.824;14.642;2023-04-15T04:23:29;95493.63;;;4.50;93.36
39769;BME280;38939;47.824;14.642;2023-04-15T04:24:31;95494.66;;;4.49;93.36
39769;BME280;38939;47.824;14.642;2023-04-15T04:25:33;95490.88;;;4.45;93.43
39769;BME280;38939;47.824;14.642;2023-04-15T04:26:34;95494.44;;;4.37;93.58
39769;BME280;38939;47.824;14.642;2023-04-15T04:27:36;95496.81;;;4.38;93.77
39769;BME280;38939;47.824;14.642;2023-04-15T04:28:38;95502.38;;;4.42;93.84
39769;BME280;38939;47.824;14.642;2023-04-15T04:29:41;95509.13;;;4.43;93.78
39769;BME280;38939;47.824;14.642;2023-04-15T04:30:43;95507.34;;;4.37;93.45
39769;BME280;38939;47.824;14.642;2023-04-15T04:31:45;95506.34;;;4.38;93.79
39769;BME280;38939;47.824;14.642;2023-04-15T04:32:48;95494.63;;;4.42;93.96
39769;BME280;38939;47.824;14.642;2023-04-15T04:33:50;95510.31;;;4.47;93.63
39769;BME280;38939;47.824;14.642;2023-04-15T04:34:52;95505.75;;;4.49;93.89
39769;BME280;38939;47.824;14.642;2023-04-15T04:35:54;95504.75;;;4.50;93.75
39769;BME280;38939;47.824;14.642;2023-04-15T04:36:56;95503.38;;;4.54;93.64
39769;BME280;38939;47.824;14.642;2023-04-15T04:37:57;95502.75;;;4.52;93.46
39769;BME280;38939;47.824;14.642;2023-04-15T04:38:59;95500.59;;;4.49;93.66
39769;BME280;38939;47.824;14.642;2023-04-15T04:40:02;95515.50;;;4.47;93.63
39769;BME280;38939;47.824;14.642;2023-04-15T04:41:04;95514.69;;;4.40;93.59
39769;BME280;38939;47.824;14.642;2023-04-15T04:42:06;95504.75;;;4.37;93.84
39769;BME280;38939;47.824;14.642;2023-04-15T04:43:08;95500.38;;;4.31;94.04
39769;BME280;38939;47.824;14.642;2023-04-15T04:44:10;95507.53;;;4.29;94.06
39769;BME280;38939;47.824;14.642;2023-04-15T04:45:12;95519.03;;;4.26;94.19
39769;BME280;38939;47.824;14.642;2023-04-15T04:46:14;95517.06;;;4.28;94.52
39769;BME280;38939;47.824;14.642;2023-04-15T04:47:16;95514.28;;;4.23;94.47
39769;BME280;38939;47.824;14.642;2023-04-15T04:48:17;95514.09;;;4.25;94.66
39769;BME280;38939;47.824;14.642;2023-04-15T04:49:20;95510.72;;;4.31;94.45
39769;BME280;38939;47.824;14.642;2023-04-15T04:50:22;95509.53;;;4.33;95.08
39769;BME280;38939;47.824;14.642;2023-04-15T04:51:23;95517.06;;;4.35;94.95
39769;BME280;38939;47.824;14.642;2023-04-15T04:52:26;95528.78;;;4.37;94.95
39769;BME280;38939;47.824;14.642;2023-04-15T04:53:28;95520.84;;;4.39;95.01
39769;BME280;38939;47.824;14.642;2023-04-15T04:54:30;95512.31;;;4.38;94.77
39769;BME280;38939;47.824;14.642;2023-04-15T04:55:33;95514.31;;;4.36;94.97
39769;BME280;38939;47.824;14.642;2023-04-15T04:56:37;95510.53;;;4.32;94.80
39769;BME280;38939;47.824;14.642;2023-04-15T04:57:40;95512.28;;;4.32;94.52
39769;BME280;38939;47.824;14.642;2023-04-15T04:58:42;95517.88;;;4.35;94.72
39769;BME280;38939;47.824;14.642;2023-04-15T04:59:43;95516.66;;;4.38;94.51
39769;BME280;38939;47.824;14.642;2023-04-15T05:00:45;95519.84;;;4.40;94.28
39769;BME280;38939;47.824;14.642;2023-04-15T05:01:47;95521.25;;;4.43;94.32
39769;BME280;38939;47.824;14.642;2023-04-15T05:02:49;95518.88;;;4.34;94.34
39769;BME280;38939;47.824;14.642;2023-04-15T05:03:51;95527.00;;;4.31;94.07
39769;BME280;38939;47.824;14.642;2023-04-15T05:04:53;95520.25;;;4.30;93.98
39769;BME280;38939;47.824;14.642;2023-04-15T05:05:55;95521.03;;;4.31;94.14
39769;BME280;38939;47.824;14.642;2023-04-15T05:06:57;95529.16;;;4.28;94.32
39769;BME280;38939;47.824;14.642;2023-04-15T05:07:59;95525.97;;;4.26;94.73
39769;BME280;38939;47.824;14.642;2023-04-15T05:09:02;95518.84;;;4.21;94.57
39769;BME280;38939;47.824;14.642;2023-04-15T05:10:04;95527.00;;;4.25;94.51
39769;BME280;38939;47.824;14.642;2023-04-15T05:11:06;95525.59;;;4.29;94.62
39769;BME280;38939;47.824;14.642;2023-04-15T05:12:08;95530.97;;;4.27;94.42
39769;BME280;38939;47.824;14.642;2023-04-15T05:13:15;95529.56;;;4.25;94.29
39769;BME280;38939;47.824;14.642;2023-04-15T05:14:17;95524.19;;;4.19;94.35
39769;BME280;38939;47.824;14.642;2023-04-15T05:15:19;95521.78;;;4.18;94.53
39769;BME280;38939;47.824;14.642;2023-04-15T05:16:20;95515.66;;;4.19;94.61
39769;BME280;38939;47.824;14.642;2023-04-15T05:17:22;95509.47;;;4.07;94.69
39769;BME280;38939;47.824;14.642;2023-04-15T05:18:24;95532.91;;;4.05;95.09
39769;BME280;38939;47.824;14.642;2023-04-15T05:19:26;95530.50;;;3.97;95.28
39769;BME280;38939;47.824;14.642;2023-04-15T05:20:28;95535.66;;;3.97;95.64
39769;BME280;38939;47.824;14.642;2023-04-15T05:21:30;95524.75;;;4.01;95.62
39769;BME280;38939;47.824;14.642;2023-04-15T05:22:33;95524.56;;;4.03;95.46
39769;BME280;38939;47.824;14.642;2023-04-15T05:23:34;95529.34;;;4.06;95.72
39769;BME280;38939;47.824;14.642;2023-04-15T05:24:36;95524.38;;;4.11;95.60
39769;BME280;38939;47.824;14.642;2023-04-15T05:25:38;95530.72;;;4.15;95.52
39769;BME280;38939;47.824;14.642;2023-04-15T05:26:40;95525.38;;;4.17;95.45
39769;BME280;38939;47.824;14.642;2023-04-15T05:27:43;95516.63;;;4.18;95.30
39769;BME280;38939;47.824;14.642;2023-04-15T05:28:45;95524.00;;;4.21;95.13
39769;BME280;38939;47.824;14.642;2023-04-15T05:29:47;95528.75;;;4.24;95.29